createdAt,value
2023-01-11T00:00:15.731Z,73.39477539
2023-01-11T00:01:16.553Z,73.39477539
2023-01-11T00:02:17.321Z,73.29101563
2023-01-11T00:03:18.168Z,73.08959961
2023-01-11T00:04:18.985Z,73.08959961
2023-01-11T00:05:20.399Z,73.19335938
2023-01-11T00:06:21.498Z,72.88208008
2023-01-11T00:07:22.290Z,72.46704102
2023-01-11T00:08:23.915Z,72.25952148
2023-01-11T00:09:24.713Z,72.05810547
2023-01-11T00:10:25.560Z,72.15576172
2023-01-11T00:11:26.361Z,72.25952148
2023-01-11T00:12:27.820Z,72.57080078
2023-01-11T00:13:59.117Z,72.57080078
2023-01-11T00:14:59.866Z,72.67456055
2023-01-11T00:16:01.400Z,72.67456055
2023-01-11T00:17:02.387Z,72.57080078
2023-01-11T00:18:03.470Z,72.57080078
2023-01-11T00:19:04.966Z,72.67456055
2023-01-11T00:20:05.875Z,72.67456055
2023-01-11T00:21:06.664Z,72.67456055
2023-01-11T00:22:07.544Z,72.57080078
2023-01-11T00:23:08.321Z,72.36328125
2023-01-11T00:24:09.166Z,72.36328125
2023-01-11T00:25:09.973Z,72.46704102
2023-01-11T00:26:11.385Z,72.80883789
2023-01-11T00:27:12.308Z,73.12011719
2023-01-11T00:28:13.152Z,73.43139648
2023-01-11T00:29:14.064Z,73.43139648
2023-01-11T00:30:15.103Z,73.32763672
2023-01-11T00:31:16.119Z,73.32763672
2023-01-11T00:32:17.099Z,73.22387695
2023-01-11T00:33:17.928Z,73.22387695
2023-01-11T00:34:18.727Z,72.91259766
2023-01-11T00:35:20.272Z,72.71118164
2023-01-11T00:36:21.271Z,72.80883789
2023-01-11T00:37:22.777Z,72.71118164
2023-01-11T00:38:23.590Z,72.60742188
2023-01-11T00:39:24.416Z,72.71118164
2023-01-11T00:40:25.275Z,72.80883789
2023-01-11T00:41:26.097Z,72.71118164
2023-01-11T00:42:27.391Z,72.71118164
2023-01-11T00:43:59.438Z,72.67456055
2023-01-11T00:45:00.308Z,72.71118164
2023-01-11T00:46:01.952Z,72.80883789
2023-01-11T00:47:02.917Z,72.91259766
2023-01-11T00:48:03.766Z,72.91259766
2023-01-11T00:49:04.716Z,73.01635742
2023-01-11T00:50:05.596Z,73.12011719
2023-01-11T00:51:06.445Z,73.22387695
2023-01-11T00:52:07.818Z,73.22387695
2023-01-11T00:53:08.655Z,73.22387695
2023-01-11T00:54:09.612Z,73.22387695
2023-01-11T00:55:10.556Z,73.22387695
2023-01-11T00:56:12.462Z,73.22387695
2023-01-11T00:57:13.469Z,73.22387695
2023-01-11T00:58:14.400Z,73.22387695
2023-01-11T00:59:15.218Z,73.22387695
2023-01-11T01:00:16.088Z,73.22387695
2023-01-11T01:01:17.100Z,73.22387695
2023-01-11T01:02:18.041Z,73.43139648
2023-01-11T01:03:18.953Z,73.63891602
2023-01-11T01:04:19.763Z,73.63891602
2023-01-11T01:05:20.629Z,73.74267578
2023-01-11T01:06:22.486Z,73.74267578
2023-01-11T01:07:23.982Z,73.84643555
2023-01-11T01:08:25.043Z,73.74267578
2023-01-11T01:09:26.033Z,73.84643555
2023-01-11T01:10:58.450Z,73.84643555
2023-01-11T01:11:59.500Z,73.84643555
2023-01-11T01:13:00.459Z,73.84643555
2023-01-11T01:14:02.211Z,73.74267578
2023-01-11T01:15:03.110Z,73.84643555
2023-01-11T01:16:05.045Z,73.84643555
2023-01-11T01:17:05.683Z,73.84643555
2023-01-11T01:18:06.639Z,73.74267578
2023-01-11T01:19:07.572Z,73.74267578
2023-01-11T01:20:08.512Z,73.84643555
2023-01-11T01:21:09.412Z,73.74267578
2023-01-11T01:22:10.196Z,73.74267578
2023-01-11T01:23:11.187Z,73.74267578
2023-01-11T01:24:12.963Z,73.84643555
2023-01-11T01:25:13.834Z,73.95019531
2023-01-11T01:26:14.605Z,74.04785156
2023-01-11T01:27:15.874Z,74.15161133
2023-01-11T01:28:16.709Z,74.25537109
2023-01-11T01:29:17.611Z,74.35913086
2023-01-11T01:30:18.521Z,74.35913086
2023-01-11T01:31:19.468Z,74.56665039
2023-01-11T01:32:20.204Z,74.67041016
2023-01-11T01:33:21.073Z,74.67041016
2023-01-11T01:34:22.062Z,74.67041016
2023-01-11T01:35:22.958Z,74.77416992
2023-01-11T01:36:24.372Z,74.67041016
2023-01-11T01:37:25.131Z,74.87792969
2023-01-11T01:38:57.650Z,74.98168945
2023-01-11T01:39:58.635Z,74.77416992
2023-01-11T01:40:59.538Z,74.77416992
2023-01-11T01:42:00.345Z,74.87792969
2023-01-11T01:43:01.123Z,75.08544922
2023-01-11T01:44:01.959Z,75.29296875
2023-01-11T01:45:03.385Z,75.29296875
2023-01-11T01:46:04.917Z,75.29296875
2023-01-11T01:47:05.773Z,75.390625
2023-01-11T01:48:06.524Z,75.49438477
2023-01-11T01:49:07.310Z,75.49438477
2023-01-11T01:50:08.185Z,75.390625
2023-01-11T01:51:09.037Z,75.29296875
2023-01-11T01:52:10.006Z,75.18920898
2023-01-11T01:53:10.816Z,75.390625
2023-01-11T01:54:11.670Z,75.59814453
2023-01-11T01:55:13.336Z,75.7019043
2023-01-11T01:56:14.222Z,75.7019043
2023-01-11T01:57:16.004Z,75.59814453
2023-01-11T01:58:16.817Z,75.49438477
2023-01-11T01:59:17.672Z,75.390625
2023-01-11T02:00:18.487Z,75.49438477
2023-01-11T02:01:19.882Z,75.29296875
2023-01-11T02:02:20.873Z,74.98168945
2023-01-11T02:03:21.818Z,74.98168945
2023-01-11T02:04:22.574Z,75.08544922
2023-01-11T02:05:23.342Z,75.08544922
2023-01-11T02:06:25.018Z,75.08544922
2023-01-11T02:07:25.863Z,75.18920898
2023-01-11T02:08:57.496Z,74.98168945
2023-01-11T02:09:58.301Z,74.87792969
2023-01-11T02:10:59.085Z,75.08544922
2023-01-11T02:11:59.929Z,75.08544922
2023-01-11T02:13:00.865Z,75.18920898
2023-01-11T02:14:01.836Z,75.08544922
2023-01-11T02:15:03.322Z,74.98168945
2023-01-11T02:16:04.158Z,74.87792969
2023-01-11T02:17:05.865Z,74.98168945
2023-01-11T02:18:06.760Z,74.87792969
2023-01-11T02:19:07.729Z,75.08544922
2023-01-11T02:20:08.592Z,75.18920898
2023-01-11T02:21:09.370Z,75.29296875
2023-01-11T02:22:10.255Z,75.18920898
2023-01-11T02:23:11.118Z,75.08544922
2023-01-11T02:24:12.030Z,75.08544922
2023-01-11T02:25:12.985Z,75.18920898
2023-01-11T02:26:14.394Z,75.32348633
2023-01-11T02:27:15.309Z,75.18920898
2023-01-11T02:28:16.177Z,75.18920898
2023-01-11T02:29:17.939Z,75.32348633
2023-01-11T02:30:18.851Z,75.42724609
2023-01-11T02:31:19.846Z,75.32348633
2023-01-11T02:32:20.563Z,75.32348633
2023-01-11T02:33:21.486Z,75.01220703
2023-01-11T02:34:22.492Z,74.91455078
2023-01-11T02:35:23.370Z,75.1159668
2023-01-11T02:36:24.917Z,75.21972656
2023-01-11T02:37:26.104Z,75.63476563
2023-01-11T02:38:57.627Z,75.94604492
2023-01-11T02:39:58.585Z,76.15356445
2023-01-11T02:40:59.524Z,76.18408203
2023-01-11T02:42:00.553Z,76.2878418
2023-01-11T02:43:01.563Z,76.49536133
2023-01-11T02:44:02.381Z,76.59912109
2023-01-11T02:45:03.932Z,76.59912109
2023-01-11T02:46:04.927Z,76.59912109
2023-01-11T02:47:06.432Z,76.66625977
2023-01-11T02:48:07.311Z,76.45874023
2023-01-11T02:49:08.074Z,76.25732422
2023-01-11T02:50:08.989Z,76.15356445
2023-01-11T02:51:09.875Z,76.04980469
2023-01-11T02:52:10.757Z,76.15356445
2023-01-11T02:53:11.649Z,76.15356445
2023-01-11T02:54:12.480Z,76.15356445
2023-01-11T02:55:13.298Z,76.04980469
2023-01-11T02:56:14.202Z,76.04980469
2023-01-11T02:57:15.936Z,76.04980469
2023-01-11T02:58:16.977Z,75.94604492
2023-01-11T02:59:17.799Z,75.63476563
2023-01-11T03:00:18.579Z,75.53100586
2023-01-11T03:01:19.584Z,75.53100586
2023-01-11T03:02:20.499Z,75.53100586
2023-01-11T03:03:21.524Z,75.73852539
2023-01-11T03:04:22.320Z,75.84228516
2023-01-11T03:05:23.118Z,76.08642578
2023-01-11T03:06:24.051Z,76.18408203
2023-01-11T03:07:25.889Z,76.08642578
2023-01-11T03:08:57.467Z,76.18408203
2023-01-11T03:09:58.284Z,76.18408203
2023-01-11T03:10:59.070Z,76.08642578
2023-01-11T03:11:59.947Z,76.08642578
2023-01-11T03:13:01.403Z,76.18408203
2023-01-11T03:14:02.403Z,76.2878418
2023-01-11T03:15:03.211Z,76.39160156
2023-01-11T03:16:04.091Z,76.2878418
2023-01-11T03:17:05.721Z,76.08642578
2023-01-11T03:18:06.594Z,76.08642578
2023-01-11T03:19:07.649Z,76.08642578
2023-01-11T03:20:08.453Z,76.2878418
2023-01-11T03:21:09.252Z,76.49536133
2023-01-11T03:22:10.041Z,76.80664063
2023-01-11T03:23:11.894Z,76.91040039
2023-01-11T03:24:12.890Z,77.01416016
2023-01-11T03:25:13.748Z,76.91040039
2023-01-11T03:26:14.581Z,77.01416016
2023-01-11T03:27:15.457Z,77.25830078
2023-01-11T03:28:16.932Z,77.46582031
2023-01-11T03:29:17.835Z,77.66723633
2023-01-11T03:30:18.672Z,77.63671875
2023-01-11T03:31:19.559Z,77.53295898
2023-01-11T03:32:20.327Z,77.22167969
2023-01-11T03:33:21.133Z,76.91040039
2023-01-11T03:34:22.053Z,76.91040039
2023-01-11T03:35:22.905Z,76.91040039
2023-01-11T03:36:23.860Z,77.22167969
2023-01-11T03:37:56.180Z,77.22167969
2023-01-11T03:38:57.213Z,77.25830078
2023-01-11T03:39:58.250Z,77.46582031
2023-01-11T03:40:59.133Z,77.66723633
2023-01-11T03:41:59.996Z,77.87475586
2023-01-11T03:43:00.835Z,78.18603516
2023-01-11T03:44:01.682Z,78.08227539
2023-01-11T03:45:02.583Z,77.97851563
2023-01-11T03:46:03.486Z,78.08227539
2023-01-11T03:47:05.455Z,78.22265625
2023-01-11T03:48:06.332Z,78.32641602
2023-01-11T03:49:07.132Z,78.32641602
2023-01-11T03:50:08.014Z,78.43017578
2023-01-11T03:51:08.918Z,78.53393555
2023-01-11T03:52:09.858Z,78.63769531
2023-01-11T03:53:10.731Z,78.63769531
2023-01-11T03:54:11.608Z,78.53393555
2023-01-11T03:55:12.429Z,78.53393555
2023-01-11T03:56:13.298Z,78.53393555
2023-01-11T03:57:14.914Z,78.43017578
2023-01-11T03:58:15.888Z,78.32641602
2023-01-11T03:59:16.669Z,78.32641602
2023-01-11T04:00:17.487Z,78.43017578
2023-01-11T04:01:18.319Z,78.63769531
2023-01-11T04:02:19.272Z,78.74145508
2023-01-11T04:03:20.950Z,78.84521484
2023-01-11T04:04:22.059Z,78.84521484
2023-01-11T04:05:23.055Z,78.84521484
2023-01-11T04:06:23.878Z,78.18603516
2023-01-11T04:07:55.967Z,78.08227539
2023-01-11T04:08:57.907Z,77.97851563
2023-01-11T04:09:58.856Z,77.77099609
2023-01-11T04:10:59.667Z,77.66723633
2023-01-11T04:12:00.596Z,77.46582031
2023-01-11T04:13:01.542Z,77.56347656
2023-01-11T04:14:02.521Z,77.46582031
2023-01-11T04:15:03.346Z,77.36206055
2023-01-11T04:16:04.244Z,77.36206055
2023-01-11T04:17:05.856Z,77.11791992
2023-01-11T04:18:07.394Z,77.01416016
2023-01-11T04:19:08.367Z,76.94702148
2023-01-11T04:20:09.277Z,77.05078125
2023-01-11T04:21:10.308Z,77.15454102
2023-01-11T04:22:11.004Z,77.15454102
2023-01-11T04:23:11.912Z,77.25830078
2023-01-11T04:24:12.863Z,77.36206055
2023-01-11T04:25:13.732Z,77.36206055
2023-01-11T04:26:14.697Z,77.46582031
2023-01-11T04:27:16.386Z,77.56347656
2023-01-11T04:28:17.187Z,77.56347656
2023-01-11T04:29:18.090Z,77.46582031
2023-01-11T04:30:19.063Z,77.46582031
2023-01-11T04:31:19.979Z,77.36206055
2023-01-11T04:32:20.749Z,77.36206055
2023-01-11T04:33:21.615Z,77.36206055
2023-01-11T04:34:22.661Z,77.36206055
2023-01-11T04:35:23.541Z,77.46582031
2023-01-11T04:36:24.901Z,77.15454102
2023-01-11T04:37:56.694Z,77.05078125
2023-01-11T04:38:58.264Z,77.36206055
2023-01-11T04:39:59.131Z,77.49633789
2023-01-11T04:41:00.037Z,77.49633789
2023-01-11T04:42:01.021Z,77.49633789
2023-01-11T04:43:01.941Z,77.28881836
2023-01-11T04:44:02.839Z,77.08740234
2023-01-11T04:45:03.617Z,77.08740234
2023-01-11T04:46:04.485Z,77.08740234
2023-01-11T04:47:05.998Z,77.19116211
2023-01-11T04:48:06.921Z,77.28881836
2023-01-11T04:49:07.725Z,77.49633789
2023-01-11T04:50:08.606Z,77.49633789
2023-01-11T04:51:09.449Z,77.60009766
2023-01-11T04:52:10.283Z,77.60009766
2023-01-11T04:53:11.208Z,77.70385742
2023-01-11T04:54:12.057Z,77.60009766
2023-01-11T04:55:13.673Z,77.49633789
2023-01-11T04:56:14.487Z,77.19116211
2023-01-11T04:57:15.947Z,76.87988281
2023-01-11T04:58:16.928Z,76.67236328
2023-01-11T04:59:17.771Z,76.67236328
2023-01-11T05:00:18.604Z,76.77612305
2023-01-11T05:01:19.478Z,76.77612305
2023-01-11T05:02:20.289Z,76.67236328
2023-01-11T05:03:21.111Z,76.56860352
2023-01-11T05:04:22.111Z,76.46484375
2023-01-11T05:05:22.929Z,76.46484375
2023-01-11T05:06:23.876Z,76.56860352
2023-01-11T05:07:55.930Z,76.67236328
2023-01-11T05:08:56.825Z,76.87988281
2023-01-11T05:09:58.409Z,76.98364258
2023-01-11T05:10:59.250Z,76.98364258
2023-01-11T05:12:00.041Z,76.98364258
2023-01-11T05:13:00.915Z,77.08740234
2023-01-11T05:14:01.933Z,76.98364258
2023-01-11T05:15:02.825Z,76.98364258
2023-01-11T05:16:03.693Z,76.87988281
2023-01-11T05:17:04.506Z,76.87988281
2023-01-11T05:18:06.387Z,77.08740234
2023-01-11T05:19:07.313Z,77.28881836
2023-01-11T05:20:08.268Z,77.39257813
2023-01-11T05:21:09.146Z,77.39257813
2023-01-11T05:22:10.786Z,77.49633789
2023-01-11T05:23:11.647Z,77.28881836
2023-01-11T05:24:12.622Z,77.08740234
2023-01-11T05:25:13.799Z,76.98364258
2023-01-11T05:26:14.755Z,76.98364258
2023-01-11T05:27:16.363Z,76.98364258
2023-01-11T05:28:17.203Z,76.98364258
2023-01-11T05:29:18.110Z,77.19116211
2023-01-11T05:30:18.991Z,77.28881836
2023-01-11T05:31:20.157Z,77.39257813
2023-01-11T05:32:20.997Z,77.49633789
2023-01-11T05:33:21.868Z,77.49633789
2023-01-11T05:34:22.605Z,77.39257813
2023-01-11T05:35:23.506Z,77.49633789
2023-01-11T05:36:54.990Z,77.49633789
2023-01-11T05:37:56.306Z,77.39257813
2023-01-11T05:38:57.457Z,77.28881836
2023-01-11T05:39:58.242Z,77.28881836
2023-01-11T05:40:59.202Z,77.25830078
2023-01-11T05:42:00.886Z,77.25830078
2023-01-11T05:43:01.744Z,77.25830078
2023-01-11T05:44:02.518Z,77.15454102
2023-01-11T05:45:03.304Z,77.36206055
2023-01-11T05:46:04.977Z,77.36206055
2023-01-11T05:47:05.790Z,77.25830078
2023-01-11T05:48:07.384Z,77.25830078
2023-01-11T05:49:08.261Z,77.15454102
2023-01-11T05:50:09.025Z,77.15454102
2023-01-11T05:51:09.818Z,77.25830078
2023-01-11T05:52:11.470Z,77.25830078
2023-01-11T05:53:12.315Z,77.25830078
2023-01-11T05:54:13.227Z,77.25830078
2023-01-11T05:55:13.964Z,77.36206055
2023-01-11T05:56:14.733Z,77.46582031
2023-01-11T05:57:15.666Z,77.46582031
2023-01-11T05:58:17.432Z,77.56347656
2023-01-11T05:59:18.485Z,77.97851563
2023-01-11T06:00:19.201Z,78.60107422
2023-01-11T06:01:20.028Z,79.43115234
2023-01-11T06:02:21.059Z,80.56640625
2023-01-11T06:03:21.967Z,81.04858398
2023-01-11T06:04:22.772Z,80.42602539
2023-01-11T06:05:24.110Z,78.87573242
2023-01-11T06:06:55.355Z,78.77197266
2023-01-11T06:07:56.869Z,78.56445313
2023-01-11T06:08:58.336Z,78.46069336
2023-01-11T06:09:59.306Z,78.25317383
2023-01-11T06:11:00.183Z,78.14941406
2023-01-11T06:12:01.076Z,78.14941406
2023-01-11T06:13:01.987Z,78.0456543
2023-01-11T06:14:02.910Z,78.14941406
2023-01-11T06:15:03.884Z,78.14941406
2023-01-11T06:16:05.390Z,78.14941406
2023-01-11T06:17:06.236Z,78.14941406
2023-01-11T06:18:07.824Z,78.25317383
2023-01-11T06:19:08.747Z,78.25317383
2023-01-11T06:20:09.696Z,78.35693359
2023-01-11T06:21:10.867Z,78.35693359
2023-01-11T06:22:12.849Z,78.35693359
2023-01-11T06:23:13.839Z,78.35693359
2023-01-11T06:24:15.024Z,78.25317383
2023-01-11T06:25:16.015Z,78.35693359
2023-01-11T06:26:16.886Z,78.35693359
2023-01-11T06:27:17.713Z,78.35693359
2023-01-11T06:28:19.259Z,78.46069336
2023-01-11T06:29:20.151Z,78.66821289
2023-01-11T06:30:21.063Z,78.77197266
2023-01-11T06:31:22.102Z,78.87573242
2023-01-11T06:32:22.892Z,78.97949219
2023-01-11T06:33:54.433Z,78.97949219
2023-01-11T06:34:55.229Z,78.97949219
2023-01-11T06:35:56.160Z,78.97949219
2023-01-11T06:36:57.103Z,79.08325195
2023-01-11T06:37:58.937Z,79.18701172
2023-01-11T06:38:59.760Z,79.18701172
2023-01-11T06:40:00.561Z,79.18701172
2023-01-11T06:41:01.491Z,79.18701172
2023-01-11T06:42:02.400Z,79.18701172
2023-01-11T06:43:03.387Z,79.18701172
2023-01-11T06:44:04.334Z,79.08325195
2023-01-11T06:45:05.135Z,79.08325195
2023-01-11T06:46:06.958Z,78.97949219
2023-01-11T06:47:07.729Z,79.08325195
2023-01-11T06:48:09.403Z,79.08325195
2023-01-11T06:49:10.301Z,78.97949219
2023-01-11T06:50:11.124Z,78.87573242
2023-01-11T06:51:12.127Z,78.66821289
2023-01-11T06:52:13.417Z,78.56445313
2023-01-11T06:53:14.404Z,78.56445313
2023-01-11T06:54:15.359Z,78.46069336
2023-01-11T06:55:16.243Z,78.66821289
2023-01-11T06:56:17.057Z,78.77197266
2023-01-11T06:57:17.934Z,78.56445313
2023-01-11T06:58:19.396Z,78.25317383
2023-01-11T06:59:20.355Z,78.14941406
2023-01-11T07:00:21.139Z,77.74047852
2023-01-11T07:01:22.139Z,77.63671875
2023-01-11T07:02:23.009Z,77.83813477
2023-01-11T07:03:54.565Z,77.94189453
2023-01-11T07:04:55.521Z,78.0456543
2023-01-11T07:05:56.324Z,78.0456543
2023-01-11T07:06:57.192Z,78.0456543
2023-01-11T07:07:59.979Z,77.83813477
2023-01-11T07:09:00.919Z,77.63671875
2023-01-11T07:10:01.771Z,77.63671875
2023-01-11T07:11:02.895Z,77.63671875
2023-01-11T07:12:03.755Z,77.74047852
2023-01-11T07:13:04.717Z,77.83813477
2023-01-11T07:14:05.540Z,77.94189453
2023-01-11T07:15:06.534Z,77.94189453
2023-01-11T07:16:08.425Z,77.94189453
2023-01-11T07:17:09.212Z,77.83813477
2023-01-11T07:18:10.901Z,77.83813477
2023-01-11T07:19:12.088Z,77.83813477
2023-01-11T07:20:13.026Z,77.83813477
2023-01-11T07:21:13.930Z,77.83813477
2023-01-11T07:22:15.030Z,77.83813477
2023-01-11T07:23:15.829Z,77.83813477
2023-01-11T07:24:16.663Z,78.0456543
2023-01-11T07:25:17.624Z,78.14941406
2023-01-11T07:26:19.486Z,78.25317383
2023-01-11T07:27:20.257Z,78.35693359
2023-01-11T07:28:21.907Z,78.46069336
2023-01-11T07:29:23.287Z,78.35693359
2023-01-11T07:30:58.740Z,78.25317383
2023-01-11T07:31:55.779Z,78.0456543
2023-01-11T07:32:56.855Z,77.83813477
2023-01-11T07:33:57.888Z,77.74047852
2023-01-11T07:34:58.815Z,77.53295898
2023-01-11T07:35:59.807Z,77.53295898
2023-01-11T07:37:00.688Z,77.42919922
2023-01-11T07:38:02.454Z,77.42919922
2023-01-11T07:39:03.305Z,77.42919922
2023-01-11T07:40:04.095Z,77.42919922
2023-01-11T07:41:04.927Z,77.39257813
2023-01-11T07:42:05.883Z,77.39257813
2023-01-11T07:43:06.826Z,77.39257813
2023-01-11T07:44:07.802Z,77.39257813
2023-01-11T07:45:08.567Z,77.39257813
2023-01-11T07:46:10.523Z,77.39257813
2023-01-11T07:47:11.438Z,77.39257813
2023-01-11T07:48:12.916Z,77.39257813
2023-01-11T07:49:13.788Z,77.39257813
2023-01-11T07:50:14.602Z,77.28881836
2023-01-11T07:51:15.416Z,77.18505859
2023-01-11T07:52:16.341Z,77.08129883
2023-01-11T07:53:17.248Z,76.97753906
2023-01-11T07:54:18.205Z,76.97753906
2023-01-11T07:55:19.006Z,77.08129883
2023-01-11T07:56:21.808Z,77.08129883
2023-01-11T07:57:21.234Z,77.18505859
2023-01-11T07:58:22.932Z,77.39257813
2023-01-11T07:59:54.280Z,77.28881836
2023-01-11T08:00:55.139Z,77.28881836
2023-01-11T08:01:56.875Z,77.25219727
2023-01-11T08:02:57.916Z,77.39257813
2023-01-11T08:03:58.817Z,77.60009766
2023-01-11T08:05:01.666Z,77.80761719
2023-01-11T08:06:00.428Z,77.80761719
2023-01-11T08:07:01.240Z,77.90527344
2023-01-11T08:08:02.092Z,78.11279297
2023-01-11T08:09:03.954Z,78.17993164
2023-01-11T08:10:04.876Z,78.17993164
2023-01-11T08:11:05.680Z,78.17993164
2023-01-11T08:12:06.375Z,78.17993164
2023-01-11T08:13:07.853Z,78.17993164
2023-01-11T08:14:08.773Z,78.28369141
2023-01-11T08:15:09.702Z,78.38745117
2023-01-11T08:16:10.644Z,78.38745117
2023-01-11T08:17:12.329Z,78.49121094
2023-01-11T08:18:13.168Z,78.49121094
2023-01-11T08:19:14.867Z,78.28369141
2023-01-11T08:20:15.729Z,78.17993164
2023-01-11T08:21:16.633Z,77.97851563
2023-01-11T08:22:17.455Z,77.87475586
2023-01-11T08:23:18.245Z,77.87475586
2023-01-11T08:24:19.497Z,77.87475586
2023-01-11T08:25:20.095Z,77.87475586
2023-01-11T08:26:21.962Z,78.07617188
2023-01-11T08:27:53.190Z,78.28369141
2023-01-11T08:28:54.812Z,78.38745117
2023-01-11T08:29:55.684Z,78.49121094
2023-01-11T08:30:56.581Z,78.28369141
2023-01-11T08:31:57.661Z,78.07617188
2023-01-11T08:32:58.493Z,77.66723633
2023-01-11T08:33:59.307Z,77.4597168
2023-01-11T08:35:00.160Z,77.35595703
2023-01-11T08:36:01.019Z,77.1484375
2023-01-11T08:37:01.888Z,76.8371582
2023-01-11T08:38:02.704Z,76.53198242
2023-01-11T08:39:04.307Z,76.32446289
2023-01-11T08:40:05.143Z,76.53198242
2023-01-11T08:41:06.036Z,76.73339844
2023-01-11T08:42:06.964Z,76.94091797
2023-01-11T08:43:07.847Z,76.94091797
2023-01-11T08:44:08.639Z,77.1484375
2023-01-11T08:45:09.490Z,77.1484375
2023-01-11T08:46:11.012Z,77.35595703
2023-01-11T08:47:11.834Z,77.56347656
2023-01-11T08:48:12.749Z,77.56347656
2023-01-11T08:49:14.334Z,77.66723633
2023-01-11T08:50:15.111Z,77.56347656
2023-01-11T08:51:15.954Z,77.56347656
2023-01-11T08:52:16.831Z,77.4597168
2023-01-11T08:53:17.683Z,77.1484375
2023-01-11T08:54:18.532Z,77.66723633
2023-01-11T08:55:19.417Z,78.45458984
2023-01-11T08:56:20.847Z,78.55834961
2023-01-11T08:57:22.263Z,79.38232422
2023-01-11T08:58:54.409Z,79.28466797
2023-01-11T08:59:55.234Z,80.10864258
2023-01-11T09:00:56.039Z,80.21240234
2023-01-11T09:01:56.978Z,80.41992188
2023-01-11T09:02:57.691Z,80.41992188
2023-01-11T09:03:58.570Z,80.41992188
2023-01-11T09:04:59.413Z,80.10864258
2023-01-11T09:06:00.194Z,80.41992188
2023-01-11T09:07:00.956Z,80.21240234
2023-01-11T09:08:01.767Z,79.58984375
2023-01-11T09:09:03.399Z,79.48608398
2023-01-11T09:10:04.931Z,80.10864258
2023-01-11T09:11:05.773Z,80.27954102
2023-01-11T09:12:06.630Z,80.37719727
2023-01-11T09:13:07.474Z,80.89599609
2023-01-11T09:14:08.317Z,80.99975586
2023-01-11T09:15:09.238Z,80.79223633
2023-01-11T09:16:10.223Z,80.79223633
2023-01-11T09:17:11.841Z,79.86450195
2023-01-11T09:18:12.645Z,79.44946289
2023-01-11T09:19:14.324Z,78.93676758
2023-01-11T09:20:15.213Z,78.72924805
2023-01-11T09:21:16.141Z,79.04052734
2023-01-11T09:22:17.005Z,78.21044922
2023-01-11T09:23:17.744Z,78.62548828
2023-01-11T09:24:18.593Z,79.14428711
2023-01-11T09:25:19.490Z,79.34570313
2023-01-11T09:26:20.932Z,79.04052734
2023-01-11T09:27:52.453Z,78.72924805
2023-01-11T09:28:53.956Z,78.72924805
2023-01-11T09:29:54.737Z,78.93676758
2023-01-11T09:30:55.695Z,79.65698242
2023-01-11T09:31:56.548Z,79.86450195
2023-01-11T09:32:57.645Z,79.86450195
2023-01-11T09:33:58.439Z,79.62036133
2023-01-11T09:34:59.238Z,79.00390625
2023-01-11T09:36:00.143Z,78.90014648
2023-01-11T09:37:01.124Z,79.00390625
2023-01-11T09:38:02.000Z,79.62036133
2023-01-11T09:39:03.375Z,79.82788086
2023-01-11T09:40:04.167Z,79.93164063
2023-01-11T09:41:05.004Z,79.93164063
2023-01-11T09:42:05.931Z,79.82788086
2023-01-11T09:43:06.747Z,79.21142578
2023-01-11T09:44:07.531Z,78.90014648
2023-01-11T09:45:08.342Z,79.00390625
2023-01-11T09:46:10.036Z,79.30908203
2023-01-11T09:47:10.900Z,79.93164063
2023-01-11T09:48:11.767Z,80.13916016
2023-01-11T09:49:13.375Z,80.03540039
2023-01-11T09:50:14.168Z,79.72412109
2023-01-11T09:51:15.009Z,79.82788086
2023-01-11T09:52:15.966Z,80.13916016
2023-01-11T09:53:16.846Z,80.44433594
2023-01-11T09:54:17.750Z,80.51147461
2023-01-11T09:55:18.493Z,80.20019531
2023-01-11T09:56:19.253Z,79.89501953
2023-01-11T09:57:20.152Z,79.47998047
2023-01-11T09:58:21.511Z,79.58374023
2023-01-11T09:59:53.773Z,80.30395508
2023-01-11T10:00:55.393Z,79.9987793
2023-01-11T10:01:56.119Z,79.58374023
2023-01-11T10:02:57.021Z,79.27246094
2023-01-11T10:03:58.160Z,79.47998047
2023-01-11T10:04:59.085Z,80.20019531
2023-01-11T10:05:59.856Z,79.79125977
2023-01-11T10:07:00.711Z,79.89501953
2023-01-11T10:18:22.721Z,79.79125977
2023-01-11T10:18:28.617Z,79.6875
2023-01-11T10:18:28.855Z,79.58374023
2023-01-11T10:18:30.325Z,79.58374023
2023-01-11T10:18:33.611Z,80.10253906
2023-01-11T10:19:34.927Z,79.6875
2023-01-11T10:20:15.574Z,79.27246094
2023-01-11T10:21:16.951Z,79.6875
2023-01-11T10:22:17.845Z,79.79125977
2023-01-11T10:23:18.631Z,79.93164063
2023-01-11T10:24:19.566Z,80.23681641
2023-01-11T10:25:20.911Z,80.23681641
2023-01-11T10:26:52.497Z,80.13916016
2023-01-11T10:27:53.276Z,80.03540039
2023-01-11T10:28:54.093Z,80.5480957
2023-01-11T10:29:55.932Z,80.34057617
2023-01-11T10:30:56.813Z,80.5480957
2023-01-11T10:31:57.797Z,80.859375
2023-01-11T10:32:58.583Z,81.37207031
2023-01-11T10:33:59.423Z,81.47583008
2023-01-11T10:35:00.335Z,81.47583008
2023-01-11T10:36:01.237Z,81.47583008
2023-01-11T10:37:02.954Z,81.89086914
2023-01-11T10:38:03.855Z,82.26318359
2023-01-11T10:39:05.474Z,82.47070313
2023-01-11T10:40:06.931Z,83.0871582
2023-01-11T10:41:07.884Z,82.98339844
2023-01-11T10:42:08.808Z,82.98339844
2023-01-11T10:43:09.641Z,83.19091797
2023-01-11T10:44:11.413Z,83.0871582
2023-01-11T10:45:12.273Z,82.98339844
2023-01-11T10:46:13.356Z,82.73925781
2023-01-11T10:47:14.277Z,82.5378418
2023-01-11T10:48:15.100Z,82.64160156
2023-01-11T10:49:16.909Z,82.5378418
2023-01-11T10:50:17.861Z,82.2265625
2023-01-11T10:51:18.786Z,82.12280273
2023-01-11T10:52:19.693Z,82.12280273
2023-01-11T10:53:21.042Z,82.12280273
2023-01-11T10:54:52.939Z,82.2265625
2023-01-11T10:55:53.835Z,82.73925781
2023-01-11T10:57:03.146Z,82.84301758
2023-01-11T10:58:01.868Z,82.84301758
2023-01-11T10:58:56.524Z,82.94677734
2023-01-11T10:59:58.382Z,82.73925781
2023-01-11T11:00:59.414Z,82.64160156
2023-01-11T11:02:00.861Z,82.43408203
2023-01-11T11:03:02.397Z,82.01904297
2023-01-11T11:04:03.368Z,81.9152832
2023-01-11T11:05:04.584Z,81.9152832
2023-01-11T11:06:05.662Z,82.01904297
2023-01-11T11:07:06.583Z,82.2265625
2023-01-11T11:08:08.405Z,82.43408203
2023-01-11T11:09:09.305Z,82.5378418
2023-01-11T11:10:10.876Z,82.5378418
2023-01-11T11:11:11.915Z,82.5378418
2023-01-11T11:12:12.886Z,82.43408203
2023-01-11T11:13:13.833Z,82.43408203
2023-01-11T11:14:15.854Z,82.43408203
2023-01-11T11:15:16.653Z,82.33032227
2023-01-11T11:16:17.894Z,82.12280273
2023-01-11T11:17:18.849Z,82.12280273